Details for QantasLink at YMML




Go Back


Latest METAR
Local Time

YMML 261330Z 01009KT CAVOK 10/07 Q1025 FM1330 MOD TURB BLW 5000FT

26/05/2018, 23:49:02

Description
Results
QantasLink Logo
Number of Pilots based at YMML
0 Pilots Based here
Number of QantasLink Flights Departed from YMML
0 Flights Departed
Number of QantasLink Flights Arrived at YMML
0 Flights Arrived
Number of QantasLink Schedules Departing from YMML
6 Schedules
Number of QantasLink Schedules Arriving at YMML
10 Schedules
Number of QantasLink Schedules Departing from YMML availible today
2 Schedules Today
Number of QantasLink Schedules Arriving at YMML availible today
4 Schedules Today
Average Landing Rate at YMML
-190 fpm
QantasLink Average Landing Rate at YMML
0 fpm
Total Fuel Purchased at YMML by QantasLink
0.00 kgs / 0.00 lbs

Pilots Based at YMML


Pilot ID
Pilot Name
Pilot Rank
No. of Flights
No. of Flying Hours
There are no pilots assigned to this hub!   Will you be the first?
Content